Time;durP1;ratioP1;P1;durP2;ratioP2;P2;SDS_P1;SDS_P2;PMS_P1;PMS_P2;Temp;Humidity;BMP_temperature;BMP_pressure;BME280_temperature;BME280_humidity;BME280_pressure;Samples;Min_cycle;Max_cycle;Signal;HPM_P1;HPM_P2
2021/04/06 00:00:26;;;;;;;6.95;3.67;;;;;;;1.76;70.00;97892.97;4397143;80;21172;-91
2021/04/06 00:06:30;;;;;;;5.47;3.72;;;;;;;1.56;70.78;97885.30;4388143;80;21312;-92
2021/04/06 00:12:33;;;;;;;7.78;3.98;;;;;;;1.55;71.18;97867.52;4393390;80;21185;-92
2021/04/06 00:18:36;;;;;;;5.72;3.77;;;;;;;1.55;71.18;97867.52;4385290;80;22380;-91
2021/04/06 00:24:43;;;;;;;7.80;4.60;;;;;;;1.48;71.29;97882.73;4384833;80;21185;-91
2021/04/06 00:30:52;;;;;;;5.53;4.17;;;;;;;1.44;71.47;97871.06;4387944;80;21200;-92
2021/04/06 00:36:56;;;;;;;5.95;4.20;;;;;;;1.45;71.66;97885.56;4366677;80;21154;-92
2021/04/06 00:43:04;;;;;;;7.08;4.37;;;;;;;1.39;71.84;97901.73;4391869;79;21121;-92
2021/04/06 00:49:06;;;;;;;8.68;4.50;;;;;;;1.33;72.00;97902.33;4384499;80;21139;-91
2021/04/06 01:01:41;;;;;;;;;;;;;;;;;;;;;
2021/04/06 01:08:13;;;;;;;;;;;;;;;;;;;;;
2021/04/06 01:14:36;;;;;;;7.37;4.53;;;;;;;1.29;72.54;97913.00;4422647;79;28322;-92
2021/04/06 01:20:41;;;;;;;9.98;5.58;;;;;;;1.40;72.26;97914.66;4381571;80;21203;-92
2021/04/06 01:26:49;;;;;;;8.23;5.08;;;;;;;1.32;72.48;97919.06;4372470;79;21165;-92
2021/04/06 01:32:51;;;;;;;10.28;6.67;;;;;;;1.29;72.81;97916.25;4341934;81;21164;-92
2021/04/06 01:38:53;;;;;;;13.43;7.53;;;;;;;1.27;73.39;97923.34;4392717;80;21180;-92
2021/04/06 01:44:58;;;;;;;11.40;6.90;;;;;;;1.06;73.58;97927.30;4373273;80;21196;-92
2021/04/06 01:51:07;;;;;;;11.70;6.92;;;;;;;1.04;73.40;97962.67;4370438;79;21880;-93
2021/04/06 02:03:22;;;;;;;10.48;6.20;;;;;;;1.06;74.09;97931.34;4590638;76;23720;-92
2021/04/06 02:09:25;;;;;;;14.50;6.90;;;;;;;0.99;73.92;97914.94;4492770;78;21139;-93
2021/04/06 02:15:27;;;;;;;18.70;10.53;;;;;;;0.95;74.32;97918.10;4493579;78;21916;-92
2021/04/06 02:21:56;;;;;;;16.63;9.70;;;;;;;0.98;74.21;97922.81;4488081;78;21251;-92
2021/04/06 02:27:58;;;;;;;13.30;7.67;;;;;;;0.91;74.19;97933.38;4489069;78;21756;-92
2021/04/06 02:33:59;;;;;;;16.10;8.77;;;;;;;0.91;74.61;97942.23;4490305;78;21215;-92
2021/04/06 02:40:09;;;;;;;12.75;7.65;;;;;;;0.94;74.63;97953.69;4494973;78;21570;-93
2021/04/06 02:46:12;;;;;;;18.62;10.35;;;;;;;1.05;74.69;97943.27;4462657;78;21135;-92
2021/04/06 02:52:19;;;;;;;16.00;8.60;;;;;;;1.06;74.53;97949.66;4512077;77;21124;-92
2021/04/06 02:58:21;;;;;;;16.62;8.18;;;;;;;0.97;74.51;97953.59;4489705;78;21541;-91
2021/04/06 03:04:26;;;;;;;13.60;7.25;;;;;;;0.96;74.51;97985.12;4459218;80;21160;-92
2021/04/06 03:10:29;;;;;;;12.20;8.18;;;;;;;0.89;74.75;97970.65;4456604;80;21252;-92
2021/04/06 03:16:32;;;;;;;15.97;6.67;;;;;;;0.88;74.62;97982.53;4456446;80;21553;-92
2021/04/06 03:22:34;;;;;;;17.60;7.25;;;;;;;0.82;74.53;97994.10;4458219;78;21172;-93
2021/04/06 03:28:38;;;;;;;14.05;7.37;;;;;;;0.65;75.04;97999.69;4456880;80;21155;-91
2021/04/06 03:34:42;;;;;;;13.63;6.53;;;;;;;0.65;75.29;98007.77;4458616;80;21143;-92
2021/04/06 03:40:44;;;;;;;15.13;6.33;;;;;;;0.59;75.38;97974.09;4283291;81;33330;-91
2021/04/06 03:46:51;;;;;;;10.78;5.62;;;;;;;0.59;75.14;97945.03;4289162;83;21168;-93
2021/04/06 03:53:09;;;;;;;13.57;6.57;;;;;;;0.66;75.22;97945.27;4287113;82;21185;-92
2021/04/06 03:59:10;;;;;;;16.27;7.20;;;;;;;0.59;75.20;97983.52;4239940;82;42334;-92
2021/04/06 04:05:18;;;;;;;11.95;6.05;;;;;;;0.65;75.18;97963.33;4264185;83;21176;-93
2021/04/06 04:11:22;;;;;;;11.43;6.37;;;;;;;0.71;75.07;97976.01;4263659;83;21578;-93
2021/04/06 04:17:24;;;;;;;17.15;8.18;;;;;;;0.68;75.16;97982.06;4259393;82;21177;-92
2021/04/06 04:23:25;;;;;;;18.48;7.67;;;;;;;0.65;75.11;97974.10;4263019;83;21140;-92
2021/04/06 04:29:27;;;;;;;20.75;11.05;;;;;;;0.62;74.87;98001.70;4261664;82;21133;-92
2021/04/06 04:35:29;;;;;;;20.77;12.23;;;;;;;0.60;74.78;98023.34;4264573;82;21216;-92
2021/04/06 04:41:40;;;;;;;21.87;10.37;;;;;;;0.58;75.45;98022.91;4272983;82;21598;-92
2021/04/06 04:47:56;;;;;;;21.00;9.68;;;;;;;0.56;75.05;98008.44;4261854;82;21169;-91
2021/04/06 04:53:57;;;;;;;23.87;8.53;;;;;;;0.64;75.50;98012.14;4264083;83;21188;-92
2021/04/06 04:59:59;;;;;;;12.83;7.00;;;;;;;0.61;75.04;98023.59;4256454;82;21205;-91
2021/04/06 05:06:01;;;;;;;16.30;9.90;;;;;;;0.59;74.66;98054.09;4247849;83;21161;-91
2021/04/06 05:12:07;;;;;;;22.50;7.22;;;;;;;0.65;75.29;98060.84;4245335;83;21185;-93
2021/04/06 05:18:09;;;;;;;13.05;7.55;;;;;;;0.60;74.53;98058.35;4250971;83;21194;-93
2021/04/06 05:24:12;;;;;;;16.23;8.67;;;;;;;0.59;75.04;98052.20;4249203;83;21291;-92
2021/04/06 05:30:18;;;;;;;15.28;7.58;;;;;;;0.59;75.38;98052.75;4250309;83;21352;-92
2021/04/06 05:36:19;;;;;;;14.53;4.35;;;;;;;0.61;74.98;98063.98;4244574;83;21644;-93
2021/04/06 05:42:21;;;;;;;13.03;6.80;;;;;;;0.61;74.54;98059.95;4247983;83;21638;-93
2021/04/06 05:48:23;;;;;;;15.07;6.87;;;;;;;0.66;74.97;98067.83;4110118;85;21404;-92
2021/04/06 05:54:27;;;;;;;14.47;6.43;;;;;;;0.76;74.85;98070.08;4247679;83;21315;-92
2021/04/06 06:00:29;;;;;;;16.03;6.67;;;;;;;0.76;74.62;98073.56;4241583;83;21192;-92
2021/04/06 06:06:30;;;;;;;22.33;8.40;;;;;;;0.76;74.86;98073.56;4304289;80;25522;-92
2021/04/06 06:12:43;;;;;;;18.87;9.75;;;;;;;0.80;74.57;98060.23;4284626;82;21168;-92
2021/04/06 06:19:10;;;;;;;19.65;9.45;;;;;;;0.77;74.89;98058.17;4277119;82;21327;-92
2021/04/06 06:25:13;;;;;;;;;;;;;;;0.90;75.05;98057.09;4277641;82;21552;-91
2021/04/06 06:31:20;;;;;;;16.97;8.18;;;;;;;0.95;75.62;98064.96;4272832;82;20189;-92
2021/04/06 06:37:27;;;;;;;18.30;9.83;;;;;;;0.97;74.88;98063.49;4271048;82;21282;-91
2021/04/06 06:43:29;;;;;;;29.27;10.05;;;;;;;0.93;75.17;98067.99;4407611;80;21160;-92
2021/04/06 06:49:34;;;;;;;20.20;9.13;;;;;;;0.93;75.15;98065.84;4404840;80;21137;-92
2021/04/06 06:55:37;;;;;;;25.02;9.93;;;;;;;0.95;75.44;98059.02;4413307;80;21152;-92
2021/04/06 07:01:39;;;;;;;16.20;6.87;;;;;;;0.93;75.27;98065.84;4360167;80;21605;-92
2021/04/06 07:07:57;;;;;;;21.90;9.63;;;;;;;0.98;74.83;98051.61;4299756;81;21326;-92
2021/04/06 07:13:59;;;;;;;18.00;9.65;;;;;;;0.98;75.02;98045.42;4295875;81;21160;-91
2021/04/06 07:20:01;;;;;;;22.52;8.08;;;;;;;0.98;75.02;98045.42;4298570;82;21662;-91
2021/04/06 07:26:13;;;;;;;18.55;8.38;;;;;;;0.95;73.97;98050.94;4297455;82;21298;-90
2021/04/06 07:32:15;;;;;;;22.70;8.30;;;;;;;0.85;73.96;98064.03;4296404;82;21188;-91
2021/04/06 07:38:18;;;;;;;25.13;10.10;;;;;;;0.77;73.75;98063.56;4232855;83;21269;-91
2021/04/06 07:44:22;;;;;;;16.77;9.17;;;;;;;0.77;74.73;98077.03;4233670;83;21124;-91
2021/04/06 07:50:45;;;;;;;24.30;9.93;;;;;;;0.81;74.45;98061.23;4230353;83;21313;-91
2021/04/06 07:56:54;;;;;;;21.62;9.15;;;;;;;0.93;74.70;98059.91;4249055;83;21297;-92
2021/04/06 08:02:55;;;;;;;22.48;10.53;;;;;;;0.87;73.85;98069.33;4262152;82;21172;-90
2021/04/06 08:08:56;;;;;;;18.67;8.97;;;;;;;0.78;74.01;98059.22;4241461;82;21581;-92
2021/04/06 08:15:11;;;;;;;23.67;10.32;;;;;;;0.79;73.62;98067.52;4238074;83;21160;-92
2021/04/06 08:21:13;;;;;;;26.00;11.20;;;;;;;0.69;73.22;98030.80;4222227;82;31071;-90
2021/04/06 08:27:37;;;;;;;29.23;10.18;;;;;;;1.12;73.35;98041.30;4221972;83;21174;-92
2021/04/06 08:33:38;;;;;;;25.30;13.58;;;;;;;1.42;72.83;98052.64;4214718;83;21154;-92
2021/04/06 08:39:41;;;;;;;25.27;9.15;;;;;;;1.70;72.58;98072.41;4210731;83;21171;-91
2021/04/06 08:46:11;;;;;;;22.70;11.12;;;;;;;2.09;70.79;98053.31;4218447;83;21636;-91
2021/04/06 08:52:15;;;;;;;22.67;8.88;;;;;;;2.14;71.55;98075.47;4216696;83;21498;-93
2021/04/06 08:58:23;;;;;;;30.02;12.03;;;;;;;2.11;71.00;98069.97;4209619;83;21553;-90
2021/04/06 09:04:35;;;;;;;22.98;9.15;;;;;;;2.05;71.33;98073.45;4224068;83;21178;-90
2021/04/06 09:10:38;;;;;;;17.62;9.48;;;;;;;1.89;70.38;98082.05;4225397;83;21299;-90
2021/04/06 09:16:41;;;;;;;20.50;9.65;;;;;;;1.96;71.17;98078.78;4221405;83;21143;-92
2021/04/06 09:22:50;;;;;;;18.90;8.80;;;;;;;2.12;70.62;98061.52;4216101;83;23846;-92
2021/04/06 09:29:11;;;;;;;17.00;7.92;;;;;;;2.63;70.53;98034.97;4148573;84;21179;-93
2021/04/06 09:35:17;;;;;;;18.35;7.42;;;;;;;2.82;69.26;98016.73;4145891;84;21325;-90
2021/04/06 09:41:18;;;;;;;17.67;8.85;;;;;;;2.87;69.42;98032.14;4159564;84;21173;-90
2021/04/06 09:47:22;;;;;;;21.45;8.93;;;;;;;2.88;69.29;98031.59;4167885;84;21791;-90
2021/04/06 09:53:24;;;;;;;16.37;8.40;;;;;;;3.40;69.44;98044.84;4169655;84;21194;-92
2021/04/06 09:59:27;;;;;;;14.73;6.55;;;;;;;4.04;69.63;98027.55;4175543;85;21613;-86
2021/04/06 10:05:28;;;;;;;14.10;6.83;;;;;;;5.18;66.40;98028.75;4194797;85;21176;-87
2021/04/06 10:11:30;;;;;;;17.40;6.72;;;;;;;4.70;65.59;98060.60;4194231;84;21305;-86
2021/04/06 10:17:41;;;;;;;27.90;11.35;;;;;;;4.42;65.77;98064.11;4194309;85;21176;-85
2021/04/06 10:23:43;;;;;;;14.80;6.22;;;;;;;4.15;66.17;98067.23;4149225;85;21172;-84
2021/04/06 10:29:52;;;;;;;18.60;5.35;;;;;;;3.92;65.91;98065.55;4122442;86;21589;-86
2021/04/06 10:36:17;;;;;;;9.85;4.78;;;;;;;3.65;65.21;98059.74;4124151;86;21211;-86
2021/04/06 10:42:19;;;;;;;11.80;4.78;;;;;;;3.69;65.37;98037.59;4183077;85;21207;-85
2021/04/06 10:48:23;;;;;;;9.80;4.80;;;;;;;4.07;64.71;98044.44;4178152;84;21147;-86
2021/04/06 10:54:25;;;;;;;12.20;5.80;;;;;;;5.49;64.24;98039.90;4083808;84;2124429;-86
2021/04/06 11:00:29;;;;;;;11.33;5.55;;;;;;;6.51;61.86;98016.87;4177403;85;21653;-85
2021/04/06 11:06:37;;;;;;;14.80;6.85;;;;;;;6.33;61.16;98022.09;4203025;84;21193;-86
2021/04/06 11:12:39;;;;;;;14.47;6.08;;;;;;;6.27;61.91;98027.66;4180676;81;32908;-87
2021/04/06 11:18:41;;;;;;;16.57;5.50;;;;;;;6.50;59.61;98030.27;4145259;85;21203;-86
2021/04/06 11:24:48;;;;;;;15.85;6.55;;;;;;;6.24;59.54;98021.03;4182752;85;21166;-85
2021/04/06 11:30:49;;;;;;;10.78;6.47;;;;;;;6.17;60.25;98015.49;4190357;85;21198;-86
2021/04/06 11:36:51;;;;;;;11.12;4.85;;;;;;;6.42;59.31;98013.66;4198878;84;21327;-86
2021/04/06 11:42:53;;;;;;;11.85;5.35;;;;;;;6.57;57.35;98009.38;4214701;84;21162;-85
2021/04/06 11:48:55;;;;;;;18.65;6.25;;;;;;;7.02;58.25;97994.08;4131267;83;37338;-87
2021/04/06 11:54:57;;;;;;;15.05;6.08;;;;;;;7.40;56.58;97990.13;4127513;86;21155;-85
2021/04/06 12:00:58;;;;;;;8.60;4.80;;;;;;;6.82;55.85;97977.77;4130566;86;21170;-85
2021/04/06 12:07:00;;;;;;;9.63;4.42;;;;;;;6.87;54.64;97981.52;4119411;82;49536;-85
2021/04/06 12:13:02;;;;;;;14.18;5.55;;;;;;;6.92;53.55;97967.55;4063446;86;44340;-87
2021/04/06 12:19:04;;;;;;;11.57;5.55;;;;;;;6.69;54.46;97955.31;4118180;86;21219;-86
2021/04/06 12:25:07;;;;;;;10.40;5.60;;;;;;;6.98;54.72;97948.39;4097426;86;21226;-85
2021/04/06 12:31:08;;;;;;;15.70;7.78;;;;;;;7.12;53.36;97953.16;4115713;86;21147;-85
2021/04/06 12:37:09;;;;;;;13.93;6.25;;;;;;;7.58;53.73;97950.19;4215846;83;21197;-87
2021/04/06 12:43:11;;;;;;;14.65;6.83;;;;;;;7.80;51.16;97948.55;4249170;83;21312;-87
2021/04/06 12:49:13;;;;;;;14.98;5.65;;;;;;;7.68;51.54;97939.35;4261214;83;21162;-87
2021/04/06 12:55:14;;;;;;;10.75;4.60;;;;;;;7.90;49.43;97949.20;4291440;83;21299;-87
2021/04/06 13:01:16;;;;;;;10.23;5.12;;;;;;;8.08;49.23;97943.05;4282254;83;21194;-87
2021/04/06 13:07:18;;;;;;;11.30;4.97;;;;;;;8.39;49.39;97931.49;4273482;83;21600;-85
2021/04/06 13:13:20;;;;;;;11.05;5.33;;;;;;;8.09;48.40;97927.67;4272939;83;21993;-86
2021/04/06 13:19:21;;;;;;;10.95;4.55;;;;;;;8.11;47.72;97925.34;4273759;83;21178;-86
2021/04/06 13:25:23;;;;;;;13.80;5.62;;;;;;;7.76;47.93;97921.89;4253848;83;21850;-86
2021/04/06 13:31:25;;;;;;;14.73;6.45;;;;;;;7.65;48.25;97921.63;4225015;83;21162;-86
2021/04/06 13:37:26;;;;;;;15.72;6.28;;;;;;;7.64;46.94;97920.83;4249486;83;21154;-86
2021/04/06 13:43:28;;;;;;;13.30;6.25;;;;;;;7.35;47.11;97921.05;4214129;84;21635;-86
2021/04/06 13:49:31;;;;;;;18.20;7.50;;;;;;;6.86;47.84;97935.05;4213724;84;21639;-85
2021/04/06 13:55:34;;;;;;;18.70;7.55;;;;;;;6.18;48.59;97942.34;4194870;81;24892;-86
2021/04/06 14:01:35;;;;;;;13.95;6.05;;;;;;;5.50;50.76;97944.53;4177214;85;21163;-85
2021/04/06 14:07:37;;;;;;;13.30;6.08;;;;;;;4.43;53.55;97938.34;4195844;85;21584;-85
2021/04/06 14:13:39;;;;;;;12.60;5.28;;;;;;;4.64;53.04;97925.94;4195193;85;21651;-85
2021/04/06 14:19:40;;;;;;;10.13;5.20;;;;;;;4.23;52.62;97909.69;4195825;85;21162;-85
2021/04/06 14:25:42;;;;;;;12.78;5.92;;;;;;;4.39;53.02;97910.38;4195400;85;21191;-85
2021/04/06 14:31:44;;;;;;;10.55;5.03;;;;;;;5.00;52.16;97899.38;4195867;85;21171;-85
2021/04/06 14:37:46;;;;;;;9.55;5.05;;;;;;;6.08;51.64;97898.16;4186661;83;21961;-86
2021/04/06 14:43:48;;;;;;;9.30;5.17;;;;;;;6.63;50.01;97890.95;4179751;85;21623;-87
2021/04/06 14:49:49;;;;;;;10.53;5.40;;;;;;;6.43;49.12;97899.11;4181170;85;21183;-90
2021/04/06 14:56:02;;;;;;;12.07;5.33;;;;;;;6.05;48.96;97907.63;4148520;85;21155;-91
2021/04/06 15:02:04;;;;;;;10.05;5.10;;;;;;;5.75;49.93;97909.55;4186612;85;21191;-90
2021/04/06 15:08:12;;;;;;;9.38;4.83;;;;;;;5.42;50.35;97905.45;4150190;85;21171;-91
2021/04/06 15:14:19;;;;;;;9.78;4.67;;;;;;;5.12;50.46;97906.74;4187605;85;21108;-92
2021/04/06 15:20:21;;;;;;;10.23;5.60;;;;;;;5.10;51.14;97910.41;4187317;85;21155;-92
2021/04/06 15:26:25;;;;;;;8.48;5.12;;;;;;;5.24;50.84;97894.91;4187009;85;21163;-91
2021/04/06 15:32:27;;;;;;;9.00;5.30;;;;;;;5.29;49.65;97904.09;4187125;85;21176;-91
2021/04/06 15:38:35;;;;;;;8.95;4.70;;;;;;;4.84;49.20;97907.66;4246944;83;21187;-89
2021/04/06 15:44:36;;;;;;;13.05;6.05;;;;;;;4.53;49.62;97909.27;4287441;82;21179;-92
2021/04/06 15:50:44;;;;;;;10.82;5.80;;;;;;;4.46;49.86;97906.45;4162185;82;439677;-90
2021/04/06 15:56:49;;;;;;;12.33;6.53;;;;;;;4.52;50.47;97911.22;4157628;85;21185;-90
2021/04/06 16:02:56;;;;;;;9.70;5.65;;;;;;;4.48;50.56;97917.13;4175135;85;21209;-90
2021/04/06 16:09:01;;;;;;;9.28;5.33;;;;;;;4.30;50.44;97914.69;4159093;85;21136;-92
2021/04/06 16:15:07;;;;;;;7.90;5.03;;;;;;;4.15;51.33;97924.27;4178770;85;21149;-90
2021/04/06 16:21:12;;;;;;;14.20;6.72;;;;;;;3.87;51.53;97923.13;4175447;84;21147;-90
2021/04/06 16:27:20;;;;;;;13.22;6.67;;;;;;;3.63;51.82;97913.16;4232187;84;21766;-91
2021/04/06 16:33:30;;;;;;;9.00;4.58;;;;;;;3.38;52.06;97914.55;4231065;84;21182;-93
2021/04/06 16:39:38;;;;;;;14.35;6.12;;;;;;;3.19;52.23;97913.36;4209144;84;21195;-91
2021/04/06 16:45:46;;;;;;;16.95;8.18;;;;;;;2.93;52.94;97917.21;4164644;83;139416;-88
2021/04/06 16:51:51;;;;;;;19.17;7.97;;;;;;;2.70;52.84;97918.98;4189980;84;21180;-92
2021/04/06 16:57:55;;;;;;;16.97;8.45;;;;;;;2.44;54.32;97921.42;4225990;83;181021;-92
2021/04/06 17:03:57;;;;;;;19.05;10.80;;;;;;;2.26;55.28;97925.56;4229302;84;21151;-92
2021/04/06 17:10:04;;;;;;;22.25;10.65;;;;;;;2.13;55.91;97931.38;4231481;84;21182;-92
2021/04/06 17:16:11;;;;;;;21.48;11.55;;;;;;;2.04;56.55;97930.17;4213557;84;21494;-90
2021/04/06 17:22:15;;;;;;;22.60;10.48;;;;;;;2.04;56.64;97926.13;4210766;84;21178;-89
2021/04/06 17:28:17;;;;;;;30.50;10.65;;;;;;;1.86;57.43;97921.38;4209656;84;21166;-89
2021/04/06 17:34:20;;;;;;;23.38;11.12;;;;;;;1.81;56.94;97928.36;4228087;84;21183;-88
2021/04/06 17:40:26;;;;;;;22.85;10.90;;;;;;;1.72;57.96;97923.13;4231277;84;21204;-90
2021/04/06 17:46:33;;;;;;;21.00;10.65;;;;;;;1.24;57.54;97934.00;4189893;84;21181;-91
2021/04/06 17:52:36;;;;;;;61.90;27.00;;;;;;;1.24;57.54;97934.00;4128257;85;21145;-89
2021/04/06 17:58:52;;;;;;;36.05;16.62;;;;;;;1.11;58.88;97939.97;4152431;85;21657;-91
2021/04/06 18:04:54;;;;;;;42.90;21.87;;;;;;;1.09;59.18;97945.49;4124610;85;21192;-90
2021/04/06 18:10:56;;;;;;;43.43;20.80;;;;;;;1.03;59.35;97948.98;4143459;85;21173;-90
2021/04/06 18:16:57;;;;;;;51.90;24.03;;;;;;;0.92;59.87;97964.03;4163603;86;21196;-90
2021/04/06 18:22:59;;;;;;;42.87;21.80;;;;;;;0.70;59.99;97967.71;4223880;84;21201;-91
2021/04/06 18:29:00;;;;;;;52.77;24.60;;;;;;;0.52;60.12;97974.43;4207824;84;21181;-89
2021/04/06 18:35:05;;;;;;;58.13;28.63;;;;;;;0.18;60.04;97980.15;4226082;84;21197;-90
2021/04/06 18:41:11;;;;;;;52.13;24.67;;;;;;;-0.26;60.74;97969.55;4241179;84;21206;-91
2021/04/06 18:47:13;;;;;;;64.00;28.25;;;;;;;-0.29;61.99;97974.23;4242150;84;21676;-89
2021/04/06 18:53:15;;;;;;;63.40;29.07;;;;;;;-0.39;61.87;97975.42;4243346;84;21177;-90
2021/04/06 18:59:17;;;;;;;62.03;27.17;;;;;;;-0.53;62.16;97974.09;4223456;84;21622;-89
2021/04/06 19:05:24;;;;;;;59.20;25.60;;;;;;;-0.60;62.43;97973.30;4224235;84;21184;-88
2021/04/06 19:11:27;;;;;;;47.20;21.97;;;;;;;-0.75;62.75;97979.80;4242811;84;21176;-88
2021/04/06 19:17:29;;;;;;;58.60;23.83;;;;;;;-0.91;62.97;97977.44;4241773;84;21153;-89
2021/04/06 19:23:32;;;;;;;66.37;30.27;;;;;;;-1.03;63.47;97973.30;4241548;84;21197;-88
2021/04/06 19:29:34;;;;;;;63.77;29.17;;;;;;;-1.05;63.70;97970.16;4241601;84;21149;-88
2021/04/06 19:35:37;;;;;;;57.83;22.77;;;;;;;-1.10;63.50;97979.20;4242944;83;21315;-89
2021/04/06 19:41:40;;;;;;;62.97;22.90;;;;;;;-1.12;63.57;97977.92;4227159;84;21187;-90
2021/04/06 19:47:44;;;;;;;57.03;21.57;;;;;;;-1.01;64.92;97984.51;4225659;84;21185;-89
2021/04/06 19:53:46;;;;;;;55.83;24.17;;;;;;;-0.97;65.22;97986.22;4224822;84;21177;-90
2021/04/06 19:59:47;;;;;;;57.50;24.23;;;;;;;-0.96;64.94;97987.81;4225056;84;21189;-88
2021/04/06 20:05:50;;;;;;;54.70;24.27;;;;;;;-0.90;65.34;97989.75;4224458;84;21612;-87
2021/04/06 20:11:51;;;;;;;52.70;24.10;;;;;;;-0.96;65.01;97984.33;4224599;84;21193;-90
2021/04/06 20:17:54;;;;;;;67.17;25.70;;;;;;;-1.02;65.36;97985.09;4224747;84;21161;-92
2021/04/06 20:23:57;;;;;;;49.07;22.40;;;;;;;-1.04;65.67;97992.67;4225580;84;21180;-91
2021/04/06 20:29:59;;;;;;;58.77;23.40;;;;;;;-1.23;66.31;97982.08;4224924;84;21618;-90
2021/04/06 20:36:07;;;;;;;56.70;23.80;;;;;;;-1.12;66.59;97991.36;4225193;84;21177;-90
2021/04/06 20:42:09;;;;;;;58.93;23.67;;;;;;;-1.09;66.45;97988.02;4224898;84;21201;-89
2021/04/06 20:48:10;;;;;;;67.77;26.57;;;;;;;-1.23;66.50;97989.59;4225402;84;21685;-89
2021/04/06 20:54:13;;;;;;;68.93;27.37;;;;;;;-1.29;66.95;98001.63;4224638;84;21594;-88
2021/04/06 21:00:15;;;;;;;73.83;29.73;;;;;;;-1.38;67.09;97998.73;4225292;84;21169;-91
2021/04/06 21:06:17;;;;;;;78.50;33.57;;;;;;;-1.44;67.37;97994.66;4225025;84;21155;-88
2021/04/06 21:12:19;;;;;;;88.80;34.27;;;;;;;-1.46;67.52;97986.13;4224592;84;21211;-90
2021/04/06 21:18:21;;;;;;;85.57;35.17;;;;;;;-1.50;67.41;97987.31;4225234;84;21145;-90
2021/04/06 21:24:22;;;;;;;84.53;35.33;;;;;;;-1.62;67.34;97989.88;4225333;84;21211;-89
2021/04/06 21:30:24;;;;;;;93.27;36.93;;;;;;;-1.66;67.66;97987.04;4225096;84;21173;-88
2021/04/06 21:36:26;;;;;;;94.40;37.97;;;;;;;-1.64;67.95;97997.45;4224568;82;21145;-91
2021/04/06 21:42:27;;;;;;;86.23;34.20;;;;;;;-1.70;67.88;98002.22;4225182;84;21744;-90
2021/04/06 21:48:30;;;;;;;80.10;32.50;;;;;;;-1.82;68.31;98002.06;4225154;84;21189;-90
2021/04/06 21:54:31;;;;;;;76.13;33.03;;;;;;;-1.84;68.69;97996.25;4225543;84;21201;-89
2021/04/06 22:00:33;;;;;;;68.27;30.40;;;;;;;-1.87;68.54;97988.84;4224822;84;21645;-90
2021/04/06 22:06:36;;;;;;;77.60;31.37;;;;;;;-1.99;68.69;97990.02;4224757;84;21180;-89
2021/04/06 22:12:38;;;;;;;80.33;32.50;;;;;;;-2.13;69.00;97980.02;4224283;84;21184;-88
2021/04/06 22:18:39;;;;;;;66.40;32.37;;;;;;;-2.17;69.25;97974.27;4225171;84;21196;-91
2021/04/06 22:24:41;;;;;;;68.27;27.93;;;;;;;-2.21;68.97;97967.98;4225620;84;21585;-87
2021/04/06 22:30:49;;;;;;;65.40;29.20;;;;;;;-2.44;69.22;97960.64;4223440;84;21184;-91
2021/04/06 22:36:50;;;;;;;59.87;27.43;;;;;;;-2.46;69.63;97956.71;4237885;81;21192;-90
2021/04/06 22:42:52;;;;;;;62.83;28.10;;;;;;;-2.49;69.94;97958.69;4207604;85;21201;-90
2021/04/06 22:48:54;;;;;;;61.77;28.00;;;;;;;-2.47;69.60;97955.11;4207705;84;21185;-91
2021/04/06 22:54:57;;;;;;;63.00;24.10;;;;;;;-2.54;70.13;97953.47;4207621;84;21619;-89
2021/04/06 23:01:10;;;;;;;60.70;24.03;;;;;;;-2.53;70.16;97951.02;4206581;83;21653;-88
2021/04/06 23:07:11;;;;;;;61.60;25.63;;;;;;;-2.66;70.47;97945.28;4148174;84;21351;-90
2021/04/06 23:13:13;;;;;;;53.60;23.10;;;;;;;-2.71;70.67;97938.73;4148583;86;21312;-89
2021/04/06 23:19:15;;;;;;;52.90;22.93;;;;;;;-2.61;71.04;97936.52;4148472;86;21343;-90
2021/04/06 23:25:18;;;;;;;51.00;22.93;;;;;;;-2.46;71.03;97950.78;4149244;86;21177;-90
2021/04/06 23:31:20;;;;;;;54.77;23.20;;;;;;;-2.44;70.97;97944.56;4148962;86;21165;-88
2021/04/06 23:37:21;;;;;;;52.20;22.40;;;;;;;-2.56;71.15;97949.77;4150070;85;21212;-91
2021/04/06 23:43:24;;;;;;;78.27;28.80;;;;;;;-2.59;71.53;97947.72;4164499;85;21180;-91
2021/04/06 23:49:27;;;;;;;67.73;25.00;;;;;;;-2.69;71.46;97951.27;4119713;86;21620;-89
2021/04/06 23:55:29;;;;;;;66.70;23.40;;;;;;;-2.75;71.77;97956.52;4120601;86;21172;-89
